首页
METAR-TAF:

METAR-TAF

机场 :

North Platte, 內布拉斯加州, 美国

纬度: 41-07-19N, 经度: 100-40-06W, 海拔: 846米

当前天气观测

该预报发布于42分钟前的08:53 UTC
静风
温度 -4°C
湿度 74%
气压 1024 hPa
能見度: 16.1公里
多云层高于7500英尺
多云层高于11000英尺

METAR: KLBF 220853Z AUTO 00000KT 10SM BKN075 BKN110 M04/M08 A3024 RMK AO2 SLP264 T10391078 53001

时间: 03:35 (09:35 UTC)

预报

该预报发布于4小时和9分钟前的05:26 UTC
预报有效从22日的 06点(UTC)到 23日的 06点(UTC)
风速3节,风向多变
能見度: 10公里
多云层高于12000英尺
从 22日的 1100点(UTC)
风速5节,风向多变
能見度: 10公里
散云层高于20000英尺
从 23日的 0000点(UTC)
风速5节,风向
能見度: 10公里
少量云层高于20000英尺

TAF: KLBF 220526Z 2206/2306 VRB03KT P6SM BKN120 FM221100 VRB05KT P6SM SCT200 FM230000 19005KT P6SM FEW200

超过4000个机场的气象观测和天气预报(METAR&TAF报告)。

可查询的气象台以黄色和红色小点在地图上表示。

将鼠标移到小点上方,可查看气象台名称。

然后点击查看天气观测和预报。

如需切换地图:点击带黑十字的绿色按钮放大地图;点击带横线的绿色按钮缩小地图;或者点击绿色箭头查看邻近地区的地图。


METAR-TAF: